sensor_id;sensor_type;location;lat;lon;timestamp;pressure;altitude;pressure_sealevel;temperature;humidity
35778;BME280;21899;42.662;23.316;2023-05-20T00:00:31;94705.00;;;11.59;100.00
35778;BME280;21899;42.662;23.316;2023-05-20T00:02:57;94705.78;;;11.63;100.00
35778;BME280;21899;42.662;23.316;2023-05-20T00:05:25;94703.88;;;11.56;100.00
35778;BME280;21899;42.662;23.316;2023-05-20T00:07:50;94703.47;;;11.58;100.00
35778;BME280;21899;42.662;23.316;2023-05-20T00:10:15;94699.63;;;11.52;100.00
35778;BME280;21899;42.662;23.316;2023-05-20T00:12:41;94708.06;;;11.57;100.00
35778;BME280;21899;42.662;23.316;2023-05-20T00:15:07;94702.31;;;11.59;100.00
35778;BME280;21899;42.662;23.316;2023-05-20T00:17:32;94701.94;;;11.57;100.00
35778;BME280;21899;42.662;23.316;2023-05-20T00:19:58;94698.13;;;11.54;100.00
35778;BME280;21899;42.662;23.316;2023-05-20T00:22:24;94696.59;;;11.53;100.00
35778;BME280;21899;42.662;23.316;2023-05-20T00:24:50;94708.47;;;11.56;100.00
35778;BME280;21899;42.662;23.316;2023-05-20T00:27:15;94687.00;;;11.42;100.00
35778;BME280;21899;42.662;23.316;2023-05-20T00:29:41;94694.66;;;11.40;100.00
35778;BME280;21899;42.662;23.316;2023-05-20T00:32:06;94701.94;;;11.43;100.00
35778;BME280;21899;42.662;23.316;2023-05-20T00:34:32;94693.13;;;11.46;100.00
35778;BME280;21899;42.662;23.316;2023-05-20T00:36:57;94676.66;;;11.37;100.00
35778;BME280;21899;42.662;23.316;2023-05-20T00:39:23;94684.69;;;11.40;100.00
35778;BME280;21899;42.662;23.316;2023-05-20T00:41:48;94673.97;;;11.30;100.00
35778;BME280;21899;42.662;23.316;2023-05-20T00:44:14;94682.78;;;11.34;100.00
35778;BME280;21899;42.662;23.316;2023-05-20T00:46:39;94671.28;;;11.26;100.00
35778;BME280;21899;42.662;23.316;2023-05-20T00:49:05;94680.47;;;11.32;100.00
35778;BME280;21899;42.662;23.316;2023-05-20T00:51:31;94665.94;;;11.26;100.00
35778;BME280;21899;42.662;23.316;2023-05-20T00:53:57;94678.56;;;11.33;100.00
35778;BME280;21899;42.662;23.316;2023-05-20T00:56:23;94673.22;;;11.33;100.00
35778;BME280;21899;42.662;23.316;2023-05-20T00:58:50;94674.38;;;11.32;100.00
35778;BME280;21899;42.662;23.316;2023-05-20T01:01:15;94658.66;;;11.30;100.00
35778;BME280;21899;42.662;23.316;2023-05-20T01:03:40;94650.25;;;11.32;100.00
35778;BME280;21899;42.662;23.316;2023-05-20T01:06:06;94668.25;;;11.42;100.00
35778;BME280;21899;42.662;23.316;2023-05-20T01:08:32;94665.94;;;11.37;100.00
35778;BME280;21899;42.662;23.316;2023-05-20T01:11:10;94668.63;;;11.44;100.00
35778;BME280;21899;42.662;23.316;2023-05-20T01:13:44;94664.78;;;11.38;100.00
35778;BME280;21899;42.662;23.316;2023-05-20T01:16:14;94660.19;;;11.31;100.00
35778;BME280;21899;42.662;23.316;2023-05-20T01:18:42;94668.22;;;11.28;100.00
35778;BME280;21899;42.662;23.316;2023-05-20T01:21:10;94682.38;;;11.25;100.00
35778;BME280;21899;42.662;23.316;2023-05-20T01:23:40;94685.06;;;11.25;100.00
35778;BME280;21899;42.662;23.316;2023-05-20T01:26:06;94682.75;;;11.20;100.00
35778;BME280;21899;42.662;23.316;2023-05-20T01:28:33;94665.88;;;11.12;100.00
35778;BME280;21899;42.662;23.316;2023-05-20T01:31:01;94672.81;;;11.20;100.00
35778;BME280;21899;42.662;23.316;2023-05-20T01:33:30;94678.16;;;11.24;100.00
35778;BME280;21899;42.662;23.316;2023-05-20T01:35:56;94678.53;;;11.22;100.00
35778;BME280;21899;42.662;23.316;2023-05-20T01:38:24;94669.75;;;11.18;100.00
35778;BME280;21899;42.662;23.316;2023-05-20T01:40:50;94666.69;;;11.20;100.00
35778;BME280;21899;42.662;23.316;2023-05-20T01:43:17;94670.53;;;11.19;100.00
35778;BME280;21899;42.662;23.316;2023-05-20T01:45:43;94672.03;;;11.16;100.00
35778;BME280;21899;42.662;23.316;2023-05-20T01:48:10;94663.97;;;11.06;100.00
35778;BME280;21899;42.662;23.316;2023-05-20T01:50:36;94651.31;;;10.99;100.00
35778;BME280;21899;42.662;23.316;2023-05-20T01:53:02;94663.22;;;11.09;100.00
35778;BME280;21899;42.662;23.316;2023-05-20T01:55:27;94658.25;;;11.04;100.00
35778;BME280;21899;42.662;23.316;2023-05-20T01:57:53;94675.84;;;11.05;100.00
35778;BME280;21899;42.662;23.316;2023-05-20T02:00:18;94654.75;;;10.93;100.00
35778;BME280;21899;42.662;23.316;2023-05-20T02:02:44;94664.34;;;11.01;100.00
35778;BME280;21899;42.662;23.316;2023-05-20T02:05:09;94652.09;;;10.96;100.00
35778;BME280;21899;42.662;23.316;2023-05-20T02:07:35;94665.88;;;11.02;100.00
35778;BME280;21899;42.662;23.316;2023-05-20T02:10:00;94657.44;;;10.89;100.00
35778;BME280;21899;42.662;23.316;2023-05-20T02:12:26;94646.66;;;10.68;100.00
35778;BME280;21899;42.662;23.316;2023-05-20T02:14:51;94647.03;;;10.67;100.00
35778;BME280;21899;42.662;23.316;2023-05-20T02:17:17;94641.69;;;10.67;100.00
35778;BME280;21899;42.662;23.316;2023-05-20T02:19:43;94654.31;;;10.73;100.00
35778;BME280;21899;42.662;23.316;2023-05-20T02:22:09;94656.63;;;10.75;100.00
35778;BME280;21899;42.662;23.316;2023-05-20T02:24:35;94650.13;;;10.69;100.00
35778;BME280;21899;42.662;23.316;2023-05-20T02:27:00;94660.47;;;10.74;100.00
35778;BME280;21899;42.662;23.316;2023-05-20T02:29:27;94655.09;;;10.74;100.00
35778;BME280;21899;42.662;23.316;2023-05-20T02:31:53;94649.00;;;10.77;100.00
35778;BME280;21899;42.662;23.316;2023-05-20T02:34:19;94652.81;;;10.76;100.00
35778;BME280;21899;42.662;23.316;2023-05-20T02:36:45;94645.91;;;10.75;100.00
35778;BME280;21899;42.662;23.316;2023-05-20T02:39:10;94647.06;;;10.70;100.00
35778;BME280;21899;42.662;23.316;2023-05-20T02:41:36;94638.63;;;10.68;100.00
35778;BME280;21899;42.662;23.316;2023-05-20T02:44:02;94655.09;;;10.74;100.00
35778;BME280;21899;42.662;23.316;2023-05-20T02:46:27;94647.84;;;10.74;100.00
35778;BME280;21899;42.662;23.316;2023-05-20T02:48:53;94650.50;;;10.67;100.00
35778;BME280;21899;42.662;23.316;2023-05-20T02:51:18;94639.75;;;10.60;100.00
35778;BME280;21899;42.662;23.316;2023-05-20T02:53:44;94642.44;;;10.60;100.00
35778;BME280;21899;42.662;23.316;2023-05-20T02:56:10;94637.84;;;10.57;100.00
35778;BME280;21899;42.662;23.316;2023-05-20T02:58:35;94650.47;;;10.64;100.00
35778;BME280;21899;42.662;23.316;2023-05-20T03:01:01;94638.97;;;10.60;100.00
35778;BME280;21899;42.662;23.316;2023-05-20T03:03:27;94647.03;;;10.67;100.00
35778;BME280;21899;42.662;23.316;2023-05-20T03:05:53;94651.63;;;10.66;100.00
35778;BME280;21899;42.662;23.316;2023-05-20T03:08:20;94641.28;;;10.61;100.00
35778;BME280;21899;42.662;23.316;2023-05-20T03:10:46;94646.66;;;10.65;100.00
35778;BME280;21899;42.662;23.316;2023-05-20T03:13:11;94660.84;;;10.76;100.00
35778;BME280;21899;42.662;23.316;2023-05-20T03:15:37;94654.31;;;10.73;100.00
35778;BME280;21899;42.662;23.316;2023-05-20T03:18:04;94671.97;;;10.85;100.00
35778;BME280;21899;42.662;23.316;2023-05-20T03:20:30;94666.22;;;10.79;100.00
35778;BME280;21899;42.662;23.316;2023-05-20T03:22:57;94665.84;;;10.81;100.00
35778;BME280;21899;42.662;23.316;2023-05-20T03:25:24;94658.19;;;10.83;100.00
35778;BME280;21899;42.662;23.316;2023-05-20T03:27:50;94672.75;;;10.92;100.00
35778;BME280;21899;42.662;23.316;2023-05-20T03:30:15;94672.00;;;10.99;100.00
35778;BME280;21899;42.662;23.316;2023-05-20T03:32:41;94675.88;;;11.15;100.00
35778;BME280;21899;42.662;23.316;2023-05-20T03:35:07;94667.84;;;11.19;100.00
35778;BME280;21899;42.662;23.316;2023-05-20T03:37:33;94680.88;;;11.38;100.00
35778;BME280;21899;42.662;23.316;2023-05-20T03:39:59;94679.75;;;11.53;100.00
35778;BME280;21899;42.662;23.316;2023-05-20T03:42:24;94682.06;;;11.68;100.00
35778;BME280;21899;42.662;23.316;2023-05-20T03:44:50;94684.38;;;11.70;100.00
35778;BME280;21899;42.662;23.316;2023-05-20T03:47:15;94688.19;;;11.76;100.00
35778;BME280;21899;42.662;23.316;2023-05-20T03:49:41;94694.31;;;11.87;100.00
35778;BME280;21899;42.662;23.316;2023-05-20T03:52:06;94692.03;;;11.96;100.00
35778;BME280;21899;42.662;23.316;2023-05-20T03:54:32;94685.09;;;12.02;100.00
35778;BME280;21899;42.662;23.316;2023-05-20T03:56:59;94682.81;;;12.15;100.00
35778;BME280;21899;42.662;23.316;2023-05-20T03:59:25;94681.19;;;12.35;100.00
35778;BME280;21899;42.662;23.316;2023-05-20T04:01:51;94691.13;;;12.55;100.00
35778;BME280;21899;42.662;23.316;2023-05-20T04:04:17;94695.69;;;12.62;100.00
35778;BME280;21899;42.662;23.316;2023-05-20T04:06:42;94693.41;;;12.57;100.00
35778;BME280;21899;42.662;23.316;2023-05-20T04:09:08;94702.66;;;12.49;100.00
35778;BME280;21899;42.662;23.316;2023-05-20T04:11:33;94697.66;;;12.54;100.00
35778;BME280;21899;42.662;23.316;2023-05-20T04:13:59;94709.91;;;12.59;100.00
35778;BME280;21899;42.662;23.316;2023-05-20T04:16:24;94711.09;;;12.47;100.00
35778;BME280;21899;42.662;23.316;2023-05-20T04:18:50;94708.81;;;12.46;100.00
35778;BME280;21899;42.662;23.316;2023-05-20T04:21:16;94719.56;;;12.35;100.00
35778;BME280;21899;42.662;23.316;2023-05-20T04:23:43;94703.84;;;12.34;100.00
35778;BME280;21899;42.662;23.316;2023-05-20T04:26:08;94696.16;;;12.39;100.00
35778;BME280;21899;42.662;23.316;2023-05-20T04:28:34;94706.06;;;12.63;100.00
35778;BME280;21899;42.662;23.316;2023-05-20T04:31:02;94707.44;;;12.99;100.00
35778;BME280;21899;42.662;23.316;2023-05-20T04:33:29;94699.88;;;13.53;100.00
35778;BME280;21899;42.662;23.316;2023-05-20T04:35:54;94698.75;;;14.42;100.00
35778;BME280;21899;42.662;23.316;2023-05-20T04:38:23;94703.28;;;15.46;99.83
35778;BME280;21899;42.662;23.316;2023-05-20T04:40:54;94710.09;;;16.27;92.41
35778;BME280;21899;42.662;23.316;2023-05-20T04:43:25;94704.59;;;16.96;87.60
35778;BME280;21899;42.662;23.316;2023-05-20T04:45:56;94711.78;;;17.22;82.25
35778;BME280;21899;42.662;23.316;2023-05-20T04:48:22;94727.88;;;17.29;81.99
35778;BME280;21899;42.662;23.316;2023-05-20T04:50:48;94726.88;;;17.04;83.42
35778;BME280;21899;42.662;23.316;2023-05-20T04:53:15;94718.59;;;17.11;83.28
35778;BME280;21899;42.662;23.316;2023-05-20T04:55:41;94721.31;;;16.91;83.82
35778;BME280;21899;42.662;23.316;2023-05-20T04:58:07;94719.50;;;17.04;84.86
35778;BME280;21899;42.662;23.316;2023-05-20T05:00:48;94718.28;;;17.44;83.56
35778;BME280;21899;42.662;23.316;2023-05-20T05:03:14;94709.91;;;18.06;80.46
35778;BME280;21899;42.662;23.316;2023-05-20T05:05:40;94725.28;;;18.74;75.60
35778;BME280;21899;42.662;23.316;2023-05-20T05:08:07;94723.94;;;19.23;73.04
35778;BME280;21899;42.662;23.316;2023-05-20T05:10:33;94719.22;;;19.52;71.20
35778;BME280;21899;42.662;23.316;2023-05-20T05:12:59;94725.34;;;20.06;68.77
35778;BME280;21899;42.662;23.316;2023-05-20T05:15:25;94728.84;;;20.53;66.66
35778;BME280;21899;42.662;23.316;2023-05-20T05:17:51;94732.09;;;20.61;64.33
35778;BME280;21899;42.662;23.316;2023-05-20T05:20:16;94732.28;;;20.07;64.16
35778;BME280;21899;42.662;23.316;2023-05-20T05:22:43;94729.34;;;20.02;65.87
35778;BME280;21899;42.662;23.316;2023-05-20T05:25:09;94711.41;;;20.04;65.52
35778;BME280;21899;42.662;23.316;2023-05-20T05:27:35;94728.84;;;20.53;64.10
35778;BME280;21899;42.662;23.316;2023-05-20T05:30:04;94714.22;;;20.38;59.36
35778;BME280;21899;42.662;23.316;2023-05-20T05:32:31;94714.66;;;19.87;59.79
35778;BME280;21899;42.662;23.316;2023-05-20T05:34:56;94719.34;;;20.11;61.44
35778;BME280;21899;42.662;23.316;2023-05-20T05:37:22;94709.03;;;20.65;59.94
35778;BME280;21899;42.662;23.316;2023-05-20T05:39:47;94717.63;;;20.98;57.93
35778;BME280;21899;42.662;23.316;2023-05-20T05:42:13;94722.06;;;21.05;53.75
35778;BME280;21899;42.662;23.316;2023-05-20T05:44:38;94708.81;;;21.16;53.76
35778;BME280;21899;42.662;23.316;2023-05-20T05:47:04;94714.34;;;21.25;53.35
35778;BME280;21899;42.662;23.316;2023-05-20T05:49:31;94718.78;;;21.10;53.17
35778;BME280;21899;42.662;23.316;2023-05-20T05:51:57;94717.84;;;21.04;51.49
35778;BME280;21899;42.662;23.316;2023-05-20T05:54:22;94714.78;;;20.67;52.83
35778;BME280;21899;42.662;23.316;2023-05-20T05:56:50;94706.19;;;19.97;55.31
35778;BME280;21899;42.662;23.316;2023-05-20T05:59:15;94712.63;;;19.66;57.20
35778;BME280;21899;42.662;23.316;2023-05-20T06:01:41;94717.28;;;19.24;60.06
35778;BME280;21899;42.662;23.316;2023-05-20T06:04:06;94711.16;;;18.95;62.07
35778;BME280;21899;42.662;23.316;2023-05-20T06:06:32;94701.50;;;18.94;63.71
35778;BME280;21899;42.662;23.316;2023-05-20T06:08:58;94699.09;;;18.96;63.21
35778;BME280;21899;42.662;23.316;2023-05-20T06:11:24;94696.59;;;18.89;62.23
35778;BME280;21899;42.662;23.316;2023-05-20T06:13:50;94703.72;;;18.83;63.03
35778;BME280;21899;42.662;23.316;2023-05-20T06:16:16;94693.22;;;18.85;64.32
35778;BME280;21899;42.662;23.316;2023-05-20T06:18:41;94703.00;;;18.95;63.80
35778;BME280;21899;42.662;23.316;2023-05-20T06:21:07;94692.69;;;18.90;63.77
35778;BME280;21899;42.662;23.316;2023-05-20T06:23:33;94702.91;;;18.70;63.91
35778;BME280;21899;42.662;23.316;2023-05-20T06:25:59;94700.72;;;18.65;64.93
35778;BME280;21899;42.662;23.316;2023-05-20T06:28:25;94683.72;;;18.64;63.82
35778;BME280;21899;42.662;23.316;2023-05-20T06:30:52;94687.03;;;18.84;63.12
35778;BME280;21899;42.662;23.316;2023-05-20T06:33:19;94690.44;;;19.01;62.03
35778;BME280;21899;42.662;23.316;2023-05-20T06:35:44;94688.81;;;19.03;59.61
35778;BME280;21899;42.662;23.316;2023-05-20T06:38:10;94683.22;;;19.10;60.47
35778;BME280;21899;42.662;23.316;2023-05-20T06:40:35;94663.56;;;19.19;60.21
35778;BME280;21899;42.662;23.316;2023-05-20T06:43:00;94670.22;;;19.30;58.75
35778;BME280;21899;42.662;23.316;2023-05-20T06:45:26;94669.91;;;19.41;57.78
35778;BME280;21899;42.662;23.316;2023-05-20T06:47:51;94664.50;;;19.41;56.87
35778;BME280;21899;42.662;23.316;2023-05-20T06:50:18;94672.75;;;19.50;56.43
35778;BME280;21899;42.662;23.316;2023-05-20T06:52:44;94666.25;;;19.60;55.44
35778;BME280;21899;42.662;23.316;2023-05-20T06:55:09;94662.88;;;19.56;56.02
35778;BME280;21899;42.662;23.316;2023-05-20T06:57:35;94681.34;;;19.61;55.86
35778;BME280;21899;42.662;23.316;2023-05-20T07:00:01;94672.66;;;19.66;55.78
35778;BME280;21899;42.662;23.316;2023-05-20T07:02:26;94686.75;;;19.74;55.59
35778;BME280;21899;42.662;23.316;2023-05-20T07:04:51;94683.94;;;19.65;52.15
35778;BME280;21899;42.662;23.316;2023-05-20T07:07:17;94680.34;;;19.68;52.21
35778;BME280;21899;42.662;23.316;2023-05-20T07:09:42;94681.44;;;19.70;51.60
35778;BME280;21899;42.662;23.316;2023-05-20T07:12:08;94666.22;;;19.73;53.35
35778;BME280;21899;42.662;23.316;2023-05-20T07:14:33;94673.06;;;19.90;53.21
35778;BME280;21899;42.662;23.316;2023-05-20T07:16:58;94671.09;;;19.90;51.87
35778;BME280;21899;42.662;23.316;2023-05-20T07:19:24;94671.88;;;19.78;51.35
35778;BME280;21899;42.662;23.316;2023-05-20T07:21:49;94679.03;;;19.97;51.11
35778;BME280;21899;42.662;23.316;2023-05-20T07:24:15;94678.91;;;20.01;50.83
35778;BME280;21899;42.662;23.316;2023-05-20T07:26:41;94670.44;;;20.11;52.00
35778;BME280;21899;42.662;23.316;2023-05-20T07:29:06;94664.88;;;20.27;51.68
35778;BME280;21899;42.662;23.316;2023-05-20T07:31:32;94669.59;;;20.48;50.69
35778;BME280;21899;42.662;23.316;2023-05-20T07:33:57;94672.69;;;20.59;50.55
35778;BME280;21899;42.662;23.316;2023-05-20T07:36:25;94664.06;;;20.73;50.68
35778;BME280;21899;42.662;23.316;2023-05-20T07:38:51;94674.31;;;20.91;49.13
35778;BME280;21899;42.662;23.316;2023-05-20T07:41:17;94673.41;;;20.72;47.81
35778;BME280;21899;42.662;23.316;2023-05-20T07:43:42;94663.16;;;20.55;47.58
35778;BME280;21899;42.662;23.316;2023-05-20T07:46:08;94687.59;;;20.67;47.74
35778;BME280;21899;42.662;23.316;2023-05-20T07:48:33;94682.78;;;20.71;48.11
35778;BME280;21899;42.662;23.316;2023-05-20T07:50:58;94677.34;;;20.71;48.10
35778;BME280;21899;42.662;23.316;2023-05-20T07:53:24;94674.81;;;20.77;48.46
35778;BME280;21899;42.662;23.316;2023-05-20T07:55:50;94676.84;;;20.86;47.02
35778;BME280;21899;42.662;23.316;2023-05-20T07:58:15;94666.34;;;20.97;46.48
35778;BME280;21899;42.662;23.316;2023-05-20T08:00:41;94678.84;;;20.94;47.00
35778;BME280;21899;42.662;23.316;2023-05-20T08:03:07;94679.00;;;20.91;45.67
35778;BME280;21899;42.662;23.316;2023-05-20T08:05:36;94663.41;;;20.69;46.73
35778;BME280;21899;42.662;23.316;2023-05-20T08:08:01;94664.69;;;20.77;47.43
35778;BME280;21899;42.662;23.316;2023-05-20T08:10:26;94669.00;;;20.88;47.41
35778;BME280;21899;42.662;23.316;2023-05-20T08:12:52;94668.34;;;20.62;46.09
35778;BME280;21899;42.662;23.316;2023-05-20T08:15:17;94666.28;;;20.32;46.56
35778;BME280;21899;42.662;23.316;2023-05-20T08:17:43;94660.78;;;19.98;47.13
35778;BME280;21899;42.662;23.316;2023-05-20T08:20:08;94649.50;;;19.74;49.04
35778;BME280;21899;42.662;23.316;2023-05-20T08:22:34;94647.00;;;19.80;49.24
35778;BME280;21899;42.662;23.316;2023-05-20T08:25:01;94645.34;;;19.95;49.50
35778;BME280;21899;42.662;23.316;2023-05-20T08:27:27;94656.53;;;20.09;49.69
35778;BME280;21899;42.662;23.316;2023-05-20T08:29:52;94653.91;;;20.06;47.97
35778;BME280;21899;42.662;23.316;2023-05-20T08:32:17;94652.91;;;20.25;48.74
35778;BME280;21899;42.662;23.316;2023-05-20T08:34:43;94645.53;;;20.25;49.09
35778;BME280;21899;42.662;23.316;2023-05-20T08:37:09;94646.00;;;20.45;48.84
35778;BME280;21899;42.662;23.316;2023-05-20T08:39:34;94642.66;;;20.63;48.42
35778;BME280;21899;42.662;23.316;2023-05-20T08:42:00;94642.53;;;20.66;49.08
35778;BME280;21899;42.662;23.316;2023-05-20T08:44:26;94659.53;;;20.92;49.18
35778;BME280;21899;42.662;23.316;2023-05-20T08:46:52;94635.53;;;21.00;48.43
35778;BME280;21899;42.662;23.316;2023-05-20T08:49:19;94645.06;;;20.83;48.57
35778;BME280;21899;42.662;23.316;2023-05-20T08:51:44;94661.91;;;20.68;48.47
35778;BME280;21899;42.662;23.316;2023-05-20T08:54:12;94666.75;;;20.52;49.05
35778;BME280;21899;42.662;23.316;2023-05-20T08:56:38;94659.81;;;20.72;48.50
35778;BME280;21899;42.662;23.316;2023-05-20T08:59:07;94662.97;;;21.05;48.51
35778;BME280;21899;42.662;23.316;2023-05-20T09:01:36;94663.94;;;20.77;48.70
35778;BME280;21899;42.662;23.316;2023-05-20T09:04:05;94657.69;;;20.67;49.08
35778;BME280;21899;42.662;23.316;2023-05-20T09:06:44;94655.22;;;20.82;46.50
35778;BME280;21899;42.662;23.316;2023-05-20T09:09:13;94648.06;;;20.76;46.82
35778;BME280;21899;42.662;23.316;2023-05-20T09:11:40;94647.06;;;20.82;47.77
35778;BME280;21899;42.662;23.316;2023-05-20T09:14:06;94645.28;;;21.10;47.58
35778;BME280;21899;42.662;23.316;2023-05-20T09:16:32;94631.09;;;21.45;47.17
35778;BME280;21899;42.662;23.316;2023-05-20T09:18:57;94625.31;;;21.74;45.85
35778;BME280;21899;42.662;23.316;2023-05-20T09:21:27;94636.84;;;21.78;44.62
35778;BME280;21899;42.662;23.316;2023-05-20T09:23:54;94636.19;;;21.74;44.48
35778;BME280;21899;42.662;23.316;2023-05-20T09:26:25;94622.22;;;22.03;45.70
35778;BME280;21899;42.662;23.316;2023-05-20T09:28:51;94624.50;;;22.13;46.03
35778;BME280;21899;42.662;23.316;2023-05-20T09:31:16;94631.97;;;21.73;46.53
35778;BME280;21899;42.662;23.316;2023-05-20T09:33:42;94617.25;;;21.61;46.70
35778;BME280;21899;42.662;23.316;2023-05-20T09:36:09;94623.72;;;21.55;46.47
35778;BME280;21899;42.662;23.316;2023-05-20T09:38:36;94618.47;;;21.30;47.28
35778;BME280;21899;42.662;23.316;2023-05-20T09:41:10;94614.03;;;21.54;47.52
35778;BME280;21899;42.662;23.316;2023-05-20T09:43:38;94616.81;;;21.72;47.92
35778;BME280;21899;42.662;23.316;2023-05-20T09:46:04;94607.94;;;21.80;47.25
35778;BME280;21899;42.662;23.316;2023-05-20T09:48:30;94614.03;;;21.54;46.26
35778;BME280;21899;42.662;23.316;2023-05-20T09:50:56;94598.72;;;21.78;46.62
35778;BME280;21899;42.662;23.316;2023-05-20T09:53:25;94600.41;;;21.93;46.73
35778;BME280;21899;42.662;23.316;2023-05-20T09:55:52;94606.63;;;21.94;46.12
35778;BME280;21899;42.662;23.316;2023-05-20T09:58:19;94602.19;;;21.78;46.95
35778;BME280;21899;42.662;23.316;2023-05-20T10:00:45;94599.19;;;21.46;46.56
35778;BME280;21899;42.662;23.316;2023-05-20T10:03:11;94599.47;;;21.08;46.92
35778;BME280;21899;42.662;23.316;2023-05-20T10:08:39;94594.91;;;20.84;48.73
35778;BME280;21899;42.662;23.316;2023-05-20T10:16:52;94578.91;;;21.07;46.74
35778;BME280;21899;42.662;23.316;2023-05-20T10:19:30;94568.91;;;21.44;46.58
35778;BME280;21899;42.662;23.316;2023-05-20T10:24:34;94558.00;;;22.02;44.87
35778;BME280;21899;42.662;23.316;2023-05-20T10:27:02;94573.28;;;21.81;44.95
35778;BME280;21899;42.662;23.316;2023-05-20T10:29:28;94562.84;;;21.79;44.92
35778;BME280;21899;42.662;23.316;2023-05-20T10:31:53;94563.97;;;21.60;44.81
35778;BME280;21899;42.662;23.316;2023-05-20T10:34:20;94559.88;;;21.56;42.58
35778;BME280;21899;42.662;23.316;2023-05-20T10:36:57;94554.16;;;21.72;41.50
35778;BME280;21899;42.662;23.316;2023-05-20T10:39:30;94552.38;;;21.87;40.03
35778;BME280;21899;42.662;23.316;2023-05-20T10:42:09;94540.44;;;21.84;40.54
35778;BME280;21899;42.662;23.316;2023-05-20T10:44:45;94531.00;;;21.58;41.73
35778;BME280;21899;42.662;23.316;2023-05-20T10:47:12;94536.53;;;21.94;41.93
35778;BME280;21899;42.662;23.316;2023-05-20T10:49:44;94526.53;;;22.19;40.88
35778;BME280;21899;42.662;23.316;2023-05-20T10:52:12;94520.31;;;22.18;40.63
35778;BME280;21899;42.662;23.316;2023-05-20T10:54:56;94534.25;;;21.93;40.30
35778;BME280;21899;42.662;23.316;2023-05-20T10:57:25;94528.69;;;21.57;40.55
35778;BME280;21899;42.662;23.316;2023-05-20T10:59:51;94519.78;;;21.65;40.20
35778;BME280;21899;42.662;23.316;2023-05-20T11:02:18;94522.09;;;21.85;40.69
35778;BME280;21899;42.662;23.316;2023-05-20T11:04:44;94533.94;;;22.00;40.81
35778;BME280;21899;42.662;23.316;2023-05-20T11:07:10;94512.44;;;21.93;40.80
35778;BME280;21899;42.662;23.316;2023-05-20T11:09:35;94524.41;;;22.32;40.90
35778;BME280;21899;42.662;23.316;2023-05-20T11:12:01;94517.25;;;22.43;39.18
35778;BME280;21899;42.662;23.316;2023-05-20T11:14:28;94522.41;;;22.68;38.84
35778;BME280;21899;42.662;23.316;2023-05-20T11:16:59;94517.13;;;22.56;38.41
35778;BME280;21899;42.662;23.316;2023-05-20T11:19:25;94509.38;;;22.36;38.76
35778;BME280;21899;42.662;23.316;2023-05-20T11:21:51;94513.63;;;22.46;40.79
35778;BME280;21899;42.662;23.316;2023-05-20T11:24:24;94503.94;;;22.18;41.21
35778;BME280;21899;42.662;23.316;2023-05-20T11:26:51;94506.38;;;22.07;41.64
35778;BME280;21899;42.662;23.316;2023-05-20T11:29:17;94498.91;;;21.62;43.31
35778;BME280;21899;42.662;23.316;2023-05-20T11:31:44;94494.66;;;21.70;44.09
35778;BME280;21899;42.662;23.316;2023-05-20T11:34:09;94493.91;;;21.61;43.28
35778;BME280;21899;42.662;23.316;2023-05-20T11:36:42;94471.41;;;21.21;45.10
35778;BME280;21899;42.662;23.316;2023-05-20T11:39:09;94476.47;;;21.49;44.06
35778;BME280;21899;42.662;23.316;2023-05-20T11:41:35;94497.22;;;21.56;43.27
35778;BME280;21899;42.662;23.316;2023-05-20T11:44:01;94480.44;;;21.57;43.68
35778;BME280;21899;42.662;23.316;2023-05-20T11:46:27;94483.91;;;21.58;43.41
35778;BME280;21899;42.662;23.316;2023-05-20T11:48:56;94483.31;;;21.63;43.43
35778;BME280;21899;42.662;23.316;2023-05-20T11:51:28;94478.94;;;21.74;42.89
35778;BME280;21899;42.662;23.316;2023-05-20T11:54:04;94463.06;;;21.82;42.67
35778;BME280;21899;42.662;23.316;2023-05-20T11:56:35;94473.16;;;21.54;43.95
35778;BME280;21899;42.662;23.316;2023-05-20T11:59:02;94472.13;;;21.70;43.66
35778;BME280;21899;42.662;23.316;2023-05-20T12:01:36;94464.22;;;21.54;43.14
35778;BME280;21899;42.662;23.316;2023-05-20T12:04:05;94479.53;;;21.51;43.73
35778;BME280;21899;42.662;23.316;2023-05-20T12:06:31;94461.34;;;21.39;43.94
35778;BME280;21899;42.662;23.316;2023-05-20T12:09:00;94466.59;;;21.34;43.87
35778;BME280;21899;42.662;23.316;2023-05-20T12:11:28;94460.13;;;21.40;43.44
35778;BME280;21899;42.662;23.316;2023-05-20T12:13:53;94449.09;;;21.44;43.92
35778;BME280;21899;42.662;23.316;2023-05-20T12:16:18;94471.19;;;21.46;44.54
35778;BME280;21899;42.662;23.316;2023-05-20T12:18:44;94464.09;;;21.48;44.89
35778;BME280;21899;42.662;23.316;2023-05-20T12:21:09;94472.41;;;21.54;45.15
35778;BME280;21899;42.662;23.316;2023-05-20T12:23:35;94470.00;;;21.56;45.10
35778;BME280;21899;42.662;23.316;2023-05-20T12:26:00;94472.34;;;21.27;45.84
35778;BME280;21899;42.662;23.316;2023-05-20T12:28:25;94464.97;;;20.97;46.29
35778;BME280;21899;42.662;23.316;2023-05-20T12:30:51;94506.63;;;20.85;46.92
35778;BME280;21899;42.662;23.316;2023-05-20T12:33:17;94511.88;;;20.48;47.00
35778;BME280;21899;42.662;23.316;2023-05-20T12:35:42;94517.56;;;20.20;47.01
35778;BME280;21899;42.662;23.316;2023-05-20T12:38:09;94505.38;;;19.90;47.74
35778;BME280;21899;42.662;23.316;2023-05-20T12:40:35;94510.03;;;19.68;49.64
35778;BME280;21899;42.662;23.316;2023-05-20T12:43:02;94513.22;;;19.54;50.79
35778;BME280;21899;42.662;23.316;2023-05-20T12:45:28;94502.38;;;19.29;51.37
35778;BME280;21899;42.662;23.316;2023-05-20T12:47:54;94517.50;;;19.30;50.65
35778;BME280;21899;42.662;23.316;2023-05-20T12:50:21;94523.56;;;19.34;50.74
35778;BME280;21899;42.662;23.316;2023-05-20T12:52:46;94514.53;;;19.37;50.64